Time;durP1;ratioP1;P1;durP2;ratioP2;P2;SDS_P1;SDS_P2;PMS_P1;PMS_P2;Temp;Humidity;BMP_temperature;BMP_pressure;BME280_temperature;BME280_humidity;BME280_pressure;Samples;Min_cycle;Max_cycle;Signal;HPM_P1;HPM_P2
2023/10/08 00:00:46;;;;;;;12.00;5.55;;;18.70;99.90;;;;;;2096519;28;20109;-72
2023/10/08 00:01:47;;;;;;;11.77;5.70;;;18.70;99.90;;;;;;2094522;28;20471;-71
2023/10/08 00:02:47;;;;;;;15.05;6.07;;;18.70;99.90;;;;;;2096163;28;20088;-72
2023/10/08 00:03:49;;;;;;;12.90;6.07;;;18.70;99.90;;;;;;2096394;28;20105;-72
2023/10/08 00:04:52;;;;;;;11.25;5.72;;;18.80;99.90;;;;;;2093960;28;20012;-72
2023/10/08 00:05:53;;;;;;;13.13;5.50;;;18.80;99.90;;;;;;2098093;28;20032;-72
2023/10/08 00:06:53;;;;;;;13.57;5.80;;;18.80;99.90;;;;;;2099115;28;20032;-72
2023/10/08 00:07:55;;;;;;;10.63;5.88;;;18.80;99.90;;;;;;2096190;28;20529;-72
2023/10/08 00:09:06;;;;;;;12.82;5.75;;;18.80;99.90;;;;;;2097487;28;20038;-72
2023/10/08 00:10:08;;;;;;;13.00;5.90;;;18.80;99.90;;;;;;2092249;28;20024;-73
2023/10/08 00:11:10;;;;;;;10.02;5.72;;;18.80;99.90;;;;;;2096526;28;20078;-72
2023/10/08 00:12:13;;;;;;;12.73;6.07;;;18.80;99.90;;;;;;2083740;28;20020;-72
2023/10/08 00:13:17;;;;;;;12.13;5.47;;;18.80;99.90;;;;;;2087266;28;20021;-72
2023/10/08 00:14:21;;;;;;;9.85;5.68;;;18.80;99.90;;;;;;2096061;28;20123;-72
2023/10/08 00:15:25;;;;;;;12.18;5.32;;;18.80;99.90;;;;;;2085105;28;20017;-72
2023/10/08 00:16:28;;;;;;;11.48;5.90;;;18.80;99.90;;;;;;2083641;28;20033;-72
2023/10/08 00:17:28;;;;;;;11.60;5.93;;;18.80;99.90;;;;;;2096236;28;20035;-71
2023/10/08 00:18:29;;;;;;;12.98;5.90;;;18.80;99.90;;;;;;2099449;28;20407;-72
2023/10/08 00:19:36;;;;;;;10.25;5.80;;;18.80;99.90;;;;;;2092751;28;20095;-71
2023/10/08 00:20:47;;;;;;;11.43;5.38;;;18.70;99.90;;;;;;2092136;28;20032;-72
2023/10/08 00:21:48;;;;;;;10.70;5.80;;;18.70;99.90;;;;;;2100038;28;20473;-70
2023/10/08 00:22:49;;;;;;;12.80;5.57;;;18.70;99.90;;;;;;2098569;28;20031;-71
2023/10/08 00:23:52;;;;;;;10.00;5.35;;;18.80;99.90;;;;;;2098210;28;20450;-71
2023/10/08 00:24:57;;;;;;;12.02;5.63;;;18.70;99.90;;;;;;2097882;28;20111;-70
2023/10/08 00:26:04;;;;;;;11.68;5.93;;;18.70;99.90;;;;;;2096197;28;20102;-70
2023/10/08 00:27:06;;;;;;;15.85;5.82;;;18.70;99.90;;;;;;2099635;28;20048;-71
2023/10/08 00:28:13;;;;;;;13.07;5.60;;;18.70;99.90;;;;;;2095793;28;20020;-71
2023/10/08 00:29:17;;;;;;;12.30;6.10;;;18.70;99.90;;;;;;2092061;28;20017;-71
2023/10/08 00:30:18;;;;;;;11.70;6.07;;;18.70;99.90;;;;;;2094059;28;20020;-71
2023/10/08 00:31:19;;;;;;;12.80;6.00;;;18.70;99.90;;;;;;2085294;28;20515;-71
2023/10/08 00:32:21;;;;;;;10.02;5.38;;;18.70;99.90;;;;;;2087430;28;20040;-71
2023/10/08 00:33:22;;;;;;;9.50;5.90;;;18.70;99.90;;;;;;2077300;28;20036;-71
2023/10/08 00:34:27;;;;;;;10.48;5.70;;;18.70;99.90;;;;;;2087215;28;20041;-71
2023/10/08 00:35:27;;;;;;;12.27;5.88;;;18.70;99.90;;;;;;2084117;28;20542;-70
2023/10/08 00:36:28;;;;;;;9.98;5.60;;;18.70;99.90;;;;;;2086258;28;20032;-71
2023/10/08 00:37:29;;;;;;;10.88;5.65;;;18.60;99.90;;;;;;2087567;28;20052;-70
2023/10/08 00:38:32;;;;;;;13.02;6.15;;;18.60;99.90;;;;;;2082944;28;20111;-70
2023/10/08 00:39:37;;;;;;;11.88;5.60;;;18.60;99.90;;;;;;2090624;28;20119;-72
2023/10/08 00:40:39;;;;;;;12.18;5.97;;;18.60;99.90;;;;;;2079947;28;20029;-71
2023/10/08 00:41:58;;;;;;;12.95;5.97;;;18.50;99.90;;;;;;2096833;28;20032;-71
2023/10/08 00:42:58;;;;;;;11.27;5.85;;;18.50;99.90;;;;;;2100305;28;20103;-71
2023/10/08 00:44:00;;;;;;;11.88;6.28;;;18.50;99.90;;;;;;2087791;28;20013;-71
2023/10/08 00:45:04;;;;;;;13.43;5.82;;;18.50;99.90;;;;;;2090967;28;20020;-71
2023/10/08 00:46:49;;;;;;;12.68;5.80;;;18.50;99.90;;;;;;2100103;28;20024;-71
2023/10/08 00:47:34;;;;;;;11.35;5.80;;;18.50;99.90;;;;;;2081027;28;20119;-71
2023/10/08 00:48:35;;;;;;;10.68;5.72;;;18.50;99.90;;;;;;2082919;28;20494;-70
2023/10/08 00:50:44;;;;;;;14.20;5.80;;;18.50;99.90;;;;;;2080744;28;20063;-70
2023/10/08 00:51:45;;;;;;;12.75;6.20;;;18.50;99.90;;;;;;2095314;28;20547;-71
2023/10/08 00:53:00;;;;;;;9.00;5.85;;;18.40;99.90;;;;;;2096224;28;20031;-70
2023/10/08 00:54:10;;;;;;;14.35;6.28;;;18.40;99.90;;;;;;2091902;28;20384;-71
2023/10/08 00:55:28;;;;;;;11.05;5.75;;;18.40;99.90;;;;;;2091911;28;20021;-71
2023/10/08 00:58:09;;;;;;;11.40;6.65;;;18.40;99.90;;;;;;2057143;28;20026;-70
2023/10/08 00:59:15;;;;;;;11.45;6.25;;;18.30;99.90;;;;;;2056193;28;20489;-69
2023/10/08 01:00:21;;;;;;;15.43;6.65;;;18.20;99.90;;;;;;2063488;28;20573;-72
2023/10/08 01:01:22;;;;;;;13.50;6.10;;;18.20;99.90;;;;;;2082785;28;20013;-71
2023/10/08 01:02:28;;;;;;;13.25;6.03;;;18.20;99.90;;;;;;2087088;28;20063;-71
2023/10/08 01:03:29;;;;;;;11.95;6.20;;;18.20;99.90;;;;;;2097973;28;20036;-71
2023/10/08 01:04:33;;;;;;;13.55;6.10;;;18.30;99.90;;;;;;2099491;28;20470;-70
2023/10/08 01:05:42;;;;;;;15.23;6.25;;;18.20;99.90;;;;;;2096736;28;20491;-70
2023/10/08 01:06:43;;;;;;;11.35;6.28;;;18.20;99.90;;;;;;2088236;28;20021;-70
2023/10/08 01:07:49;;;;;;;10.93;6.18;;;18.20;99.90;;;;;;2096804;28;20032;-70
2023/10/08 01:08:57;;;;;;;12.85;6.13;;;18.20;99.90;;;;;;2086927;28;20056;-71
2023/10/08 01:10:04;;;;;;;8.82;6.35;;;18.20;99.90;;;;;;2071263;28;20034;-70
2023/10/08 01:11:49;;;;;;;18.75;6.57;;;18.30;99.90;;;;;;2086944;28;20528;-71
2023/10/08 01:13:42;;;;;;;13.23;6.55;;;18.20;99.90;;;;;;2077047;28;20026;-71
2023/10/08 01:14:10;;;;;;;16.40;6.13;;;18.20;99.90;;;;;;2075794;28;20504;-71
2023/10/08 01:15:23;;;;;;;12.65;6.32;;;18.20;99.90;;;;;;2096096;28;20029;-70
2023/10/08 01:16:26;;;;;;;12.70;6.38;;;18.10;99.90;;;;;;2088886;28;20611;-71
2023/10/08 01:17:32;;;;;;;13.43;6.50;;;18.00;99.90;;;;;;2088727;28;20040;-71
2023/10/08 01:18:35;;;;;;;13.13;7.18;;;18.00;99.90;;;;;;2087599;28;20029;-70
2023/10/08 01:19:40;;;;;;;15.70;6.90;;;17.90;99.90;;;;;;2088228;28;20595;-71
2023/10/08 01:21:48;;;;;;;16.25;7.28;;;17.50;99.90;;;;;;2092467;28;20044;-70
2023/10/08 01:22:48;;;;;;;13.52;7.45;;;17.40;99.90;;;;;;2096110;28;20044;-72
2023/10/08 01:23:54;;;;;;;14.77;7.82;;;17.40;99.90;;;;;;2095999;28;20043;-72
2023/10/08 01:24:55;;;;;;;15.80;8.55;;;17.20;99.90;;;;;;2094671;28;20040;-72
2023/10/08 01:26:10;;;;;;;14.75;8.63;;;17.10;99.90;;;;;;2088363;28;20048;-72
2023/10/08 01:27:12;;;;;;;12.45;8.80;;;17.10;99.90;;;;;;2089574;28;20027;-72
2023/10/08 01:28:18;;;;;;;15.05;9.23;;;17.00;99.90;;;;;;2082074;28;20029;-72
2023/10/08 01:29:19;;;;;;;17.00;9.63;;;16.90;99.90;;;;;;2083001;28;20055;-72
2023/10/08 01:30:20;;;;;;;16.55;10.05;;;16.90;99.90;;;;;;2087070;28;20029;-72
2023/10/08 01:31:20;;;;;;;18.83;10.57;;;16.80;99.90;;;;;;2084453;28;20553;-73
2023/10/08 01:32:22;;;;;;;18.75;10.57;;;16.80;99.90;;;;;;2101579;28;20115;-72
2023/10/08 01:33:27;;;;;;;20.75;11.38;;;16.70;99.90;;;;;;2101181;28;20028;-72
2023/10/08 01:34:30;;;;;;;19.15;12.30;;;16.60;99.90;;;;;;2085353;28;20029;-72
2023/10/08 01:35:31;;;;;;;20.10;14.02;;;16.50;99.90;;;;;;2091008;28;20033;-72
2023/10/08 01:36:32;;;;;;;18.52;13.15;;;16.50;99.90;;;;;;2089828;28;20028;-72
2023/10/08 01:37:34;;;;;;;22.48;13.65;;;16.50;99.90;;;;;;2078444;28;20041;-72
2023/10/08 01:38:34;;;;;;;21.75;14.40;;;16.40;99.90;;;;;;2082322;28;20044;-73
2023/10/08 01:39:42;;;;;;;28.02;15.07;;;16.40;99.90;;;;;;2088167;28;20037;-73
2023/10/08 01:40:43;;;;;;;22.85;15.48;;;16.40;99.90;;;;;;2090498;28;20079;-73
2023/10/08 01:41:44;;;;;;;21.05;15.00;;;16.40;99.90;;;;;;2087362;28;20151;-73
2023/10/08 01:42:45;;;;;;;22.35;14.73;;;16.30;99.90;;;;;;2089107;28;20606;-74
2023/10/08 01:43:46;;;;;;;21.50;14.38;;;16.30;99.90;;;;;;2091933;28;20048;-73
2023/10/08 01:44:50;;;;;;;22.60;14.02;;;16.30;99.90;;;;;;2088038;28;20087;-73
2023/10/08 01:45:52;;;;;;;18.90;12.68;;;16.20;99.90;;;;;;2089263;28;20013;-73
2023/10/08 01:46:52;;;;;;;13.43;9.95;;;16.10;99.90;;;;;;2077911;28;20111;-73
2023/10/08 01:47:54;;;;;;;12.57;9.32;;;16.10;99.90;;;;;;2079668;28;20032;-73
2023/10/08 01:49:08;;;;;;;9.65;6.82;;;16.00;99.90;;;;;;2097056;28;20419;-73
2023/10/08 01:50:21;;;;;;;5.88;4.72;;;15.90;99.90;;;;;;2095123;28;20058;-73
2023/10/08 01:51:46;;;;;;;7.38;4.15;;;15.70;99.90;;;;;;2093010;28;20098;-73
2023/10/08 01:52:53;;;;;;;3.78;3.00;;;15.50;99.90;;;;;;2094888;28;20032;-73
2023/10/08 01:53:58;;;;;;;3.47;2.10;;;15.30;99.90;;;;;;2093134;28;20039;-73
2023/10/08 01:54:59;;;;;;;2.50;1.98;;;15.20;99.90;;;;;;2084713;28;20555;-73
2023/10/08 01:56:01;;;;;;;1.55;1.45;;;15.10;99.90;;;;;;2087759;28;20040;-73
2023/10/08 01:57:02;;;;;;;2.13;1.50;;;15.00;99.90;;;;;;2081086;28;20021;-73
2023/10/08 01:58:04;;;;;;;1.40;1.30;;;14.90;99.90;;;;;;2078873;28;20405;-73
2023/10/08 01:59:04;;;;;;;1.38;1.27;;;14.80;99.90;;;;;;2076773;28;20032;-73
2023/10/08 02:00:09;;;;;;;1.20;1.10;;;14.70;99.90;;;;;;2077485;28;20033;-73
2023/10/08 02:01:13;;;;;;;1.15;1.15;;;14.60;99.90;;;;;;2087458;28;20021;-72
2023/10/08 02:02:15;;;;;;;1.15;1.05;;;14.50;99.90;;;;;;2098569;28;20047;-72
2023/10/08 02:03:17;;;;;;;0.80;0.80;;;14.50;99.90;;;;;;2090940;28;20029;-72
2023/10/08 02:04:18;;;;;;;0.80;0.80;;;14.40;99.90;;;;;;2085198;28;20079;-73
2023/10/08 02:05:19;;;;;;;0.80;0.80;;;14.40;99.90;;;;;;2078145;28;20158;-72
2023/10/08 02:06:20;;;;;;;0.80;0.80;;;14.30;99.90;;;;;;2080174;28;20026;-72
2023/10/08 02:07:21;;;;;;;0.70;0.70;;;14.20;99.90;;;;;;2098089;28;20047;-72
2023/10/08 02:08:22;;;;;;;0.52;0.52;;;14.20;99.90;;;;;;2091267;28;20529;-73
2023/10/08 02:09:26;;;;;;;0.50;0.50;;;14.10;99.90;;;;;;2083060;28;20095;-73
2023/10/08 02:10:28;;;;;;;0.50;0.50;;;14.00;99.90;;;;;;2088278;28;20036;-73
2023/10/08 02:11:29;;;;;;;0.50;0.50;;;14.00;99.90;;;;;;2093076;28;20066;-73
2023/10/08 02:12:30;;;;;;;0.50;0.50;;;13.90;99.90;;;;;;2084108;28;20059;-74
2023/10/08 02:13:31;;;;;;;0.50;0.50;;;13.90;99.90;;;;;;2092308;28;20036;-73
2023/10/08 02:14:33;;;;;;;0.50;0.50;;;13.80;99.90;;;;;;2096890;28;20039;-72
2023/10/08 02:15:53;;;;;;;1.45;0.50;;;13.70;99.90;;;;;;2088660;28;20486;-73
2023/10/08 02:16:56;;;;;;;0.50;0.50;;;13.70;99.90;;;;;;2091558;28;20119;-70
2023/10/08 02:17:58;;;;;;;0.40;0.40;;;13.70;99.90;;;;;;2096989;28;20023;-72
2023/10/08 02:18:59;;;;;;;0.40;0.40;;;13.70;99.90;;;;;;2087776;28;20123;-80
2023/10/08 02:20:04;;;;;;;0.90;0.47;;;13.60;99.90;;;;;;2080013;28;20026;-80
2023/10/08 02:21:05;;;;;;;0.47;0.47;;;13.60;99.90;;;;;;2083677;28;20029;-80
2023/10/08 02:22:09;;;;;;;0.40;0.40;;;13.60;99.90;;;;;;2072495;28;20033;-80
2023/10/08 02:23:12;;;;;;;0.40;0.40;;;13.70;99.90;;;;;;2082597;28;20029;-80
2023/10/08 02:24:13;;;;;;;0.40;0.40;;;13.60;99.90;;;;;;2082095;28;20480;-81
2023/10/08 02:25:14;;;;;;;0.40;0.40;;;13.60;99.90;;;;;;2086909;28;20021;-81
2023/10/08 02:26:15;;;;;;;0.32;0.32;;;13.60;99.90;;;;;;2071483;28;20077;-81
2023/10/08 02:27:16;;;;;;;0.30;0.30;;;13.60;99.90;;;;;;2073130;28;20104;-79
2023/10/08 02:28:20;;;;;;;0.30;0.30;;;13.50;99.90;;;;;;2082391;28;20022;-79
2023/10/08 02:29:24;;;;;;;0.30;0.30;;;13.50;99.90;;;;;;2080436;28;20633;-81
2023/10/08 02:30:27;;;;;;;0.30;0.30;;;13.50;99.90;;;;;;2087164;28;20094;-78
2023/10/08 02:31:27;;;;;;;0.40;0.40;;;13.50;99.90;;;;;;2099809;28;20035;-79
2023/10/08 02:32:29;;;;;;;0.50;0.30;;;13.50;99.90;;;;;;2097704;28;20501;-78
2023/10/08 02:33:30;;;;;;;0.50;0.50;;;13.50;99.90;;;;;;2096326;28;20028;-78
2023/10/08 02:34:30;;;;;;;1.00;0.47;;;13.50;99.90;;;;;;2096916;28;20048;-78
2023/10/08 02:35:31;;;;;;;0.43;0.43;;;13.50;99.90;;;;;;2096805;28;20105;-80
2023/10/08 02:36:32;;;;;;;0.50;0.50;;;13.50;99.90;;;;;;2092200;28;20063;-80
2023/10/08 02:37:35;;;;;;;0.50;0.50;;;13.50;99.90;;;;;;2092066;28;20031;-79
2023/10/08 02:38:37;;;;;;;0.32;0.32;;;13.50;99.90;;;;;;2088765;28;20403;-78
2023/10/08 02:39:40;;;;;;;0.30;0.30;;;13.50;99.90;;;;;;2096579;28;20055;-77
2023/10/08 02:40:46;;;;;;;0.40;0.40;;;13.50;99.90;;;;;;2087818;28;20028;-79
2023/10/08 02:41:48;;;;;;;0.40;0.40;;;13.50;99.90;;;;;;2091740;28;20427;-78
2023/10/08 02:42:49;;;;;;;0.55;0.40;;;13.50;99.90;;;;;;2099866;28;20050;-78
2023/10/08 02:43:49;;;;;;;0.40;0.40;;;13.50;99.90;;;;;;2092376;28;20123;-79
2023/10/08 02:44:50;;;;;;;0.40;0.40;;;13.40;99.90;;;;;;2098233;28;20023;-77
2023/10/08 02:45:52;;;;;;;0.40;0.40;;;13.50;99.90;;;;;;2087883;28;20112;-78
2023/10/08 02:46:54;;;;;;;0.40;0.40;;;13.40;99.90;;;;;;2090393;28;20024;-78
2023/10/08 02:47:55;;;;;;;0.40;0.40;;;13.40;99.90;;;;;;2088091;28;20040;-78
2023/10/08 02:48:56;;;;;;;0.50;0.50;;;13.40;99.90;;;;;;2079590;28;20124;-78
2023/10/08 02:49:58;;;;;;;0.60;0.60;;;13.40;99.90;;;;;;2089561;28;20016;-78
2023/10/08 02:51:07;;;;;;;0.43;0.43;;;13.40;99.90;;;;;;2090806;28;20511;-79
2023/10/08 02:52:12;;;;;;;0.55;0.55;;;13.30;99.90;;;;;;2091847;28;20123;-77
2023/10/08 02:53:20;;;;;;;0.50;0.50;;;13.30;99.90;;;;;;2079918;28;20032;-78
2023/10/08 02:54:31;;;;;;;0.40;0.40;;;13.30;99.90;;;;;;2076406;28;20057;-78
2023/10/08 02:55:34;;;;;;;0.80;0.60;;;13.20;99.90;;;;;;2085375;28;20695;-78
2023/10/08 02:56:35;;;;;;;0.60;0.60;;;13.20;99.90;;;;;;2079007;28;20020;-79
2023/10/08 02:57:35;;;;;;;1.95;0.50;;;13.10;99.90;;;;;;2091830;28;20056;-78
2023/10/08 02:58:36;;;;;;;0.50;0.50;;;13.10;99.90;;;;;;2090988;28;20117;-78
2023/10/08 02:59:40;;;;;;;0.50;0.50;;;13.00;99.90;;;;;;2079103;28;20244;-78
2023/10/08 03:00:43;;;;;;;0.52;0.52;;;13.00;99.90;;;;;;2093182;28;20020;-79
2023/10/08 03:01:43;;;;;;;0.60;0.60;;;13.00;99.90;;;;;;2092111;28;20786;-79
2023/10/08 03:02:46;;;;;;;0.50;0.50;;;13.00;99.90;;;;;;2100615;28;20024;-80
2023/10/08 03:03:46;;;;;;;0.60;0.60;;;13.00;99.90;;;;;;2096271;28;20459;-79
2023/10/08 03:04:51;;;;;;;0.50;0.50;;;13.00;99.90;;;;;;2083913;28;20096;-78
2023/10/08 03:05:52;;;;;;;1.05;0.40;;;13.00;99.90;;;;;;2081004;28;20060;-79
2023/10/08 03:06:53;;;;;;;0.50;0.50;;;13.00;99.90;;;;;;2092195;28;20020;-79
2023/10/08 03:07:53;;;;;;;0.50;0.50;;;13.00;99.90;;;;;;2092139;28;20075;-78
2023/10/08 03:08:54;;;;;;;0.50;0.50;;;13.00;99.90;;;;;;2078657;28;20769;-80
2023/10/08 03:10:03;;;;;;;0.50;0.50;;;13.00;99.90;;;;;;2079889;28;20064;-79
2023/10/08 03:11:04;;;;;;;0.50;0.50;;;13.00;99.90;;;;;;2089556;28;20028;-80
2023/10/08 03:12:08;;;;;;;0.50;0.50;;;12.90;99.90;;;;;;2096210;28;20046;-80
2023/10/08 03:13:12;;;;;;;0.50;0.50;;;12.90;99.90;;;;;;2093982;28;20036;-80
2023/10/08 03:14:15;;;;;;;0.40;0.40;;;12.90;99.90;;;;;;2088092;28;20052;-80
2023/10/08 03:15:38;;;;;;;0.40;0.40;;;12.90;99.90;;;;;;2083860;28;20054;-79
2023/10/08 03:16:39;;;;;;;0.93;0.40;;;12.90;99.90;;;;;;2094429;28;20150;-79
2023/10/08 03:17:48;;;;;;;0.60;0.60;;;12.90;99.90;;;;;;2100218;28;20039;-80
2023/10/08 03:18:50;;;;;;;0.68;0.50;;;12.90;99.90;;;;;;2095435;28;20498;-80
2023/10/08 03:19:51;;;;;;;1.02;0.50;;;12.80;99.90;;;;;;2079620;28;20033;-79
2023/10/08 03:20:52;;;;;;;0.30;0.30;;;12.70;99.90;;;;;;2075950;28;20033;-81
2023/10/08 03:21:56;;;;;;;0.30;0.30;;;12.50;99.90;;;;;;2088835;28;20059;-81
2023/10/08 03:22:57;;;;;;;0.40;0.40;;;12.40;99.90;;;;;;2088559;28;20025;-83
2023/10/08 03:23:58;;;;;;;0.30;0.30;;;12.30;99.90;;;;;;2087252;28;20511;-81
2023/10/08 03:25:14;;;;;;;0.30;0.30;;;12.20;99.90;;;;;;2088455;28;20047;-83
2023/10/08 03:27:41;;;;;;;0.30;0.30;;;12.00;99.90;;;;;;2089434;28;20051;-84
2023/10/08 03:28:41;;;;;;;0.30;0.30;;;12.00;99.90;;;;;;2094097;28;20024;-84
2023/10/08 03:29:42;;;;;;;0.47;0.40;;;11.90;99.90;;;;;;2085058;28;20091;-83
2023/10/08 03:30:56;;;;;;;0.40;0.40;;;11.80;99.90;;;;;;2085098;28;20025;-81
2023/10/08 03:31:57;;;;;;;;;;;11.80;99.90;;;;;;2083525;28;20528;-84
2023/10/08 03:32:57;;;;;;;0.30;0.30;;;11.80;99.90;;;;;;2084411;28;19955;-84
2023/10/08 03:34:00;;;;;;;0.40;0.40;;;11.80;99.90;;;;;;2085406;28;20032;-84
2023/10/08 03:35:01;;;;;;;0.40;0.40;;;11.80;99.90;;;;;;2089986;28;20020;-84
2023/10/08 03:36:14;;;;;;;0.47;0.40;;;11.70;99.90;;;;;;2088437;28;20029;-84
2023/10/08 03:37:20;;;;;;;0.40;0.40;;;11.70;99.90;;;;;;2090863;28;20365;-83
2023/10/08 03:38:28;;;;;;;0.30;0.30;;;11.70;99.90;;;;;;2087728;28;20021;-83
2023/10/08 03:39:50;;;;;;;0.45;0.40;;;11.70;99.90;;;;;;2092563;28;20141;-86
2023/10/08 03:40:50;;;;;;;0.35;0.35;;;11.70;99.90;;;;;;2094683;28;20028;-82
2023/10/08 03:42:07;;;;;;;0.65;0.32;;;11.70;99.90;;;;;;2099875;28;20032;-82
2023/10/08 03:43:19;;;;;;;0.30;0.30;;;11.70;99.90;;;;;;2101225;28;20004;-83
2023/10/08 03:44:20;;;;;;;0.63;0.40;;;11.70;99.90;;;;;;2094599;28;20028;-84
2023/10/08 03:46:43;;;;;;;0.45;0.40;;;11.70;99.90;;;;;;2086507;28;20025;-83
2023/10/08 03:47:46;;;;;;;0.45;0.45;;;11.70;99.90;;;;;;2089365;28;20068;-83
2023/10/08 03:48:57;;;;;;;0.77;0.50;;;11.70;99.90;;;;;;2094351;28;20118;-81
2023/10/08 03:50:05;;;;;;;1.63;0.70;;;11.70;99.90;;;;;;2094803;28;20514;-83
2023/10/08 03:51:11;;;;;;;2.78;1.00;;;11.70;99.90;;;;;;2088885;28;20021;-81
2023/10/08 03:52:15;;;;;;;4.43;1.55;;;11.60;99.90;;;;;;2090356;28;20040;-84
2023/10/08 03:53:16;;;;;;;5.10;1.73;;;11.50;99.90;;;;;;2087567;28;20020;-83
2023/10/08 03:54:18;;;;;;;5.45;1.52;;;11.50;99.90;;;;;;2089090;28;20032;-82
2023/10/08 03:56:19;;;;;;;5.63;2.03;;;11.30;99.90;;;;;;2085760;28;20032;-82
2023/10/08 03:57:25;;;;;;;6.88;2.10;;;11.30;99.90;;;;;;2088628;28;20029;-85
2023/10/08 03:58:30;;;;;;;9.70;2.40;;;11.20;99.90;;;;;;2082564;28;20033;-85
2023/10/08 03:59:34;;;;;;;9.55;2.30;;;11.20;99.90;;;;;;2094847;28;20062;-84
2023/10/08 04:00:41;;;;;;;9.50;2.67;;;11.10;99.90;;;;;;2100180;28;20043;-85
2023/10/08 04:01:42;;;;;;;7.72;2.22;;;11.10;99.90;;;;;;2102328;28;20036;-84
2023/10/08 04:02:54;;;;;;;7.22;2.30;;;11.00;99.90;;;;;;2086980;28;20127;-86
2023/10/08 04:04:03;;;;;;;6.15;2.22;;;11.00;99.90;;;;;;2083948;28;20064;-85
2023/10/08 04:05:18;;;;;;;9.27;2.17;;;11.00;99.90;;;;;;2090467;28;20048;-83
2023/10/08 04:08:04;;;;;;;5.43;2.15;;;11.00;99.90;;;;;;2079050;28;20040;-83
2023/10/08 04:12:11;;;;;;;6.30;2.08;;;11.10;99.90;;;;;;2092508;28;20700;-83
2023/10/08 04:12:44;;;;;;;6.68;2.13;;;11.20;99.90;;;;;;2083792;28;20501;-82
2023/10/08 04:13:48;;;;;;;7.43;2.30;;;11.20;99.90;;;;;;2087500;28;20499;-81
2023/10/08 04:14:49;;;;;;;6.47;2.30;;;11.10;99.90;;;;;;2091726;28;20451;-82
2023/10/08 04:15:49;;;;;;;6.75;2.30;;;11.10;99.90;;;;;;2087733;28;20051;-83
2023/10/08 04:16:53;;;;;;;8.60;2.17;;;11.10;99.90;;;;;;2101046;28;20115;-81
2023/10/08 04:17:54;;;;;;;7.28;2.22;;;11.10;99.90;;;;;;2083714;28;20036;-81
2023/10/08 04:18:55;;;;;;;6.43;2.33;;;11.10;99.90;;;;;;2083864;28;20048;-82
2023/10/08 04:19:58;;;;;;;7.03;2.42;;;11.00;99.90;;;;;;2088306;28;20063;-80
2023/10/08 04:21:04;;;;;;;5.18;1.98;;;10.90;99.90;;;;;;2097157;28;20570;-81
2023/10/08 04:22:14;;;;;;;6.25;2.20;;;10.90;99.90;;;;;;2096443;28;20660;-81
2023/10/08 04:23:20;;;;;;;6.63;1.98;;;10.90;99.90;;;;;;2080440;28;22626;-82
2023/10/08 04:24:28;;;;;;;5.50;2.17;;;10.90;99.90;;;;;;2080831;28;20034;-80
2023/10/08 04:25:30;;;;;;;6.72;2.33;;;10.90;99.90;;;;;;2088842;28;20029;-82
2023/10/08 04:26:32;;;;;;;6.97;2.10;;;10.90;99.90;;;;;;2093341;28;20056;-82
2023/10/08 04:27:34;;;;;;;7.15;2.15;;;10.90;99.90;;;;;;2099388;28;20529;-80
2023/10/08 04:28:35;;;;;;;7.55;2.25;;;10.80;99.90;;;;;;2083225;28;20112;-80
2023/10/08 04:29:42;;;;;;;5.60;2.40;;;10.80;99.90;;;;;;2076906;28;20079;-80
2023/10/08 04:30:45;;;;;;;7.43;1.80;;;10.80;99.90;;;;;;2086566;28;20017;-83
2023/10/08 04:31:46;;;;;;;7.72;2.20;;;10.80;99.90;;;;;;2087792;28;20041;-81
2023/10/08 04:32:47;;;;;;;6.28;2.10;;;10.80;99.90;;;;;;2088523;28;20840;-82
2023/10/08 04:33:47;;;;;;;5.95;2.00;;;10.80;99.90;;;;;;2098947;28;20147;-82
2023/10/08 04:34:49;;;;;;;6.03;2.28;;;10.80;99.90;;;;;;2079251;28;20049;-82
2023/10/08 04:35:56;;;;;;;6.57;1.98;;;10.90;99.90;;;;;;2080957;28;20611;-82
2023/10/08 04:37:12;;;;;;;8.77;2.40;;;10.90;99.90;;;;;;2097260;28;20036;-82
2023/10/08 04:38:12;;;;;;;5.40;2.03;;;10.90;99.90;;;;;;2097666;28;20193;-81
2023/10/08 04:39:21;;;;;;;8.45;2.25;;;10.90;99.90;;;;;;2101480;28;20526;-80
2023/10/08 04:40:23;;;;;;;7.60;2.15;;;10.90;99.90;;;;;;2097306;28;20070;-81
2023/10/08 04:41:28;;;;;;;5.85;2.05;;;10.90;99.90;;;;;;2090434;28;20447;-82
2023/10/08 04:42:28;;;;;;;6.22;2.10;;;10.90;99.90;;;;;;2091946;28;20024;-81
2023/10/08 04:43:30;;;;;;;5.50;1.90;;;10.90;99.90;;;;;;2096701;28;20557;-81
2023/10/08 04:44:31;;;;;;;4.25;1.80;;;10.90;99.90;;;;;;2087536;28;20036;-79
2023/10/08 04:45:34;;;;;;;6.50;2.08;;;10.90;99.90;;;;;;2075490;28;20474;-79
2023/10/08 04:47:41;;;;;;;4.25;1.80;;;10.90;99.90;;;;;;2096057;28;20036;-80
2023/10/08 04:48:43;;;;;;;5.47;1.95;;;10.90;99.90;;;;;;2091975;28;20112;-79
2023/10/08 04:49:45;;;;;;;3.90;1.73;;;11.00;99.90;;;;;;2085340;28;20029;-80
2023/10/08 04:50:58;;;;;;;4.97;1.98;;;11.00;99.90;;;;;;2080862;28;20075;-80
2023/10/08 04:52:00;;;;;;;4.60;1.90;;;11.00;99.90;;;;;;2085430;28;20030;-79
2023/10/08 04:53:07;;;;;;;5.97;2.05;;;11.00;99.90;;;;;;2096405;28;20031;-79
2023/10/08 04:54:08;;;;;;;7.45;2.20;;;11.00;99.90;;;;;;2076220;28;20108;-81
2023/10/08 04:55:15;;;;;;;6.65;2.20;;;11.00;99.90;;;;;;2065777;28;20030;-79
2023/10/08 04:56:19;;;;;;;4.88;1.90;;;11.00;99.90;;;;;;2073007;28;20423;-81
2023/10/08 04:57:25;;;;;;;5.60;2.00;;;11.00;99.90;;;;;;2090615;28;20655;-80
2023/10/08 04:58:33;;;;;;;3.90;1.88;;;11.00;99.90;;;;;;2092622;28;20055;-80
2023/10/08 04:59:33;;;;;;;4.93;2.10;;;11.00;99.90;;;;;;2079602;28;20662;-80
2023/10/08 05:00:53;;;;;;;6.15;2.00;;;10.90;99.90;;;;;;2075375;28;20037;-81
2023/10/08 05:02:12;;;;;;;4.25;1.80;;;10.90;99.90;;;;;;2085495;28;20017;-83
2023/10/08 05:03:16;;;;;;;6.00;2.20;;;10.90;99.90;;;;;;2098165;28;20021;-85
2023/10/08 05:04:55;;;;;;;5.45;2.10;;;10.80;99.90;;;;;;2095783;28;20069;-84
2023/10/08 05:06:07;;;;;;;3.15;1.70;;;10.90;99.90;;;;;;2098707;28;20028;-85
2023/10/08 05:07:20;;;;;;;6.28;2.05;;;10.90;99.90;;;;;;2092865;28;20029;-85
2023/10/08 05:08:28;;;;;;;4.88;1.98;;;10.90;99.90;;;;;;2100064;28;20047;-85
2023/10/08 05:09:46;;;;;;;3.55;1.95;;;10.80;99.90;;;;;;2100940;28;20414;-85
2023/10/08 05:11:01;;;;;;;7.57;2.35;;;10.80;99.90;;;;;;2092470;28;20029;-85
2023/10/08 05:12:28;;;;;;;5.43;2.00;;;10.90;99.90;;;;;;2085610;28;20029;-86
2023/10/08 05:13:34;;;;;;;7.10;2.20;;;10.80;99.90;;;;;;2089131;28;20100;-84
2023/10/08 05:14:38;;;;;;;3.72;1.92;;;10.90;99.90;;;;;;2082197;28;20041;-83
2023/10/08 05:16:01;;;;;;;4.95;2.00;;;10.80;99.90;;;;;;2103078;28;20070;-85
2023/10/08 05:17:10;;;;;;;4.20;1.92;;;10.90;99.90;;;;;;2098405;28;20075;-83
2023/10/08 05:18:23;;;;;;;5.70;2.00;;;10.80;99.90;;;;;;2091259;28;20092;-84
2023/10/08 05:22:01;;;;;;;4.70;2.05;;;10.90;99.90;;;;;;2097172;28;20025;-85
2023/10/08 05:23:20;;;;;;;3.75;1.90;;;10.90;99.90;;;;;;2089039;28;20041;-84
2023/10/08 05:24:27;;;;;;;3.65;1.90;;;10.90;99.90;;;;;;2090134;28;20028;-84
2023/10/08 05:25:40;;;;;;;3.50;1.90;;;10.90;99.90;;;;;;2101034;28;20094;-83
2023/10/08 05:26:44;;;;;;;3.67;1.90;;;10.90;99.90;;;;;;2094926;28;20166;-83
2023/10/08 05:29:25;;;;;;;5.70;2.15;;;10.90;99.90;;;;;;2087621;28;20075;-83
2023/10/08 05:30:53;;;;;;;3.85;1.98;;;10.90;99.90;;;;;;2097558;28;20119;-82
2023/10/08 05:32:30;;;;;;;;;;;10.90;99.90;;;;;;2092566;28;20040;-82
2023/10/08 05:34:22;;;;;;;4.82;1.90;;;10.90;99.90;;;;;;2097851;28;20541;-82
2023/10/08 05:37:31;;;;;;;3.72;1.83;;;10.90;99.90;;;;;;2094440;28;20039;-83
2023/10/08 05:41:55;;;;;;;3.05;1.63;;;10.90;99.90;;;;;;2096940;28;20086;-84
2023/10/08 05:43:01;;;;;;;3.85;1.67;;;10.90;99.90;;;;;;2094027;28;20043;-82
2023/10/08 05:44:14;;;;;;;2.40;1.50;;;10.90;99.90;;;;;;2098771;28;20107;-82
2023/10/08 05:45:29;;;;;;;2.97;1.63;;;10.90;99.90;;;;;;2096545;28;20036;-83
2023/10/08 05:48:44;;;;;;;4.00;1.80;;;10.90;99.90;;;;;;2088777;28;20503;-82
2023/10/08 05:50:09;;;;;;;2.95;1.50;;;10.90;99.90;;;;;;2081925;28;20029;-82
2023/10/08 05:51:13;;;;;;;4.35;1.70;;;10.80;99.90;;;;;;2087538;28;20025;-80
2023/10/08 05:52:25;;;;;;;3.60;1.70;;;10.70;99.90;;;;;;2096243;28;20035;-81
2023/10/08 05:53:43;;;;;;;4.07;1.80;;;10.70;99.90;;;;;;2094844;28;20028;-80
2023/10/08 05:56:16;;;;;;;3.75;1.63;;;10.70;99.90;;;;;;2088771;28;20032;-80
2023/10/08 05:57:35;;;;;;;4.38;1.88;;;10.70;99.90;;;;;;2085958;28;20688;-80
2023/10/08 05:58:45;;;;;;;3.60;1.73;;;10.60;99.90;;;;;;2083443;28;20479;-80
2023/10/08 06:01:07;;;;;;;6.55;1.90;;;10.70;99.90;;;;;;2089895;28;20484;-80
2023/10/08 06:02:27;;;;;;;3.28;1.70;;;10.60;99.90;;;;;;2084750;28;20076;-82
2023/10/08 06:07:33;;;;;;;3.78;1.70;;;10.40;99.90;;;;;;2090085;28;20028;-84
2023/10/08 06:10:41;;;;;;;5.03;1.77;;;10.30;99.90;;;;;;2063273;28;20465;-76
2023/10/08 06:11:44;;;;;;;4.90;2.00;;;10.20;99.90;;;;;;2067204;28;20030;-75
2023/10/08 06:12:49;;;;;;;4.85;2.22;;;10.20;99.90;;;;;;2054510;28;20139;-77